Track Осипов Александр

Time Latitude Longitude Accuracy (66% radius in meters) Altitude (meters) Speed (km/hour) Bearing (degrees) Battery (%) GPS flag
07:05:21 57.204212 60.111195 4.9000000953674 244.4 0 301.16000366211 68 1 delete
07:05:06 57.204313 60.111057 4.9000000953674 244.2 0 301.16000366211 68 1 delete
07:04:50 57.204350 60.111208 4.3000001907349 244.6 0 301.16000366211 68 1 delete
07:04:43 57.204422 60.111317 4.0999999046326 245 0 301.16000366211 68 1 delete
07:04:35 57.204505 60.111385 3.7999999523163 245.3 0 301.16000366211 68 1 delete
07:03:40 57.204585 60.111475 5 245.4 0 301.16000366211 68 1 delete
07:03:13 57.204705 60.111577 4.9000000953674 248.8 0 301.16000366211 68 1 delete
07:03:01 57.204828 60.111733 4.9000000953674 249.2 0 301.16000366211 68 1 delete
07:02:52 57.204960 60.111715 5.0999999046326 247.4 0 301.16000366211 68 1 delete
07:02:39 57.205080 60.111743 5.1999998092651 248.4 0 301.16000366211 68 1 delete
07:02:28 57.205188 60.111748 5.5 249.7 0 301.16000366211 68 1 delete
07:02:14 57.205300 60.111672 5.9000000953674 254.2 0 301.16000366211 68 1 delete
07:02:04 57.205440 60.111578 8 252.8 0 301.16000366211 68 1 delete
07:01:23 57.204988 60.117205 8.6000003814697 217.3 4.6685304641724 286.80999755859 68 1 delete
07:01:21 57.204960 60.117370 7.9000000953674 217.3 4.5537476539612 286.58999633789 68 1 delete
07:01:19 57.204927 60.117540 7.3000001907349 217.2 4.2891802787781 286.89001464844 68 1 delete
07:01:17 57.204893 60.117715 6.9000000953674 217.1 3.6504099369049 290.60000610352 68 1 delete
07:01:14 57.204843 60.117905 6 217.1 2.4840495586395 298.35998535156 68 1 delete
07:01:10 57.204800 60.118055 4.8000001907349 217.1 2.2833077907562 299.45999145508 68 1 delete
07:01:06 57.204723 60.118190 4.5999999046326 217.1 2.1031548976898 306.45001220703 68 1 delete
07:01:02 57.204632 60.118290 4.8000001907349 217.1 1.7366727590561 344.67999267578 68 1 delete
07:00:57 57.204532 60.118335 5.1999998092651 217.1 2.204555273056 359.38000488281 68 1 delete
07:00:53 57.204423 60.118338 5.1999998092651 217.1 3.3631949424744 3.0299999713898 68 1 delete
07:00:51 57.204312 60.118363 5.4000000953674 217.1 3.3765778541565 357.88000488281 68 1 delete
07:00:49 57.204182 60.118413 5.6999998092651 217.1 2.988477230072 353.17001342773 68 1 delete
07:00:47 57.204053 60.118420 5.9000000953674 217.1 0 341.32000732422 68 1 delete
07:00:45 57.203922 60.118470 6.0999999046326 217.1 0 158.7200012207 68 1 delete
07:00:43 57.203810 60.118525 6.1999998092651 217.1 0 158.7200012207 68 1 delete
07:00:38 57.203692 60.118683 5.8000001907349 217.1 0 158.7200012207 68 1 delete
07:00:22 57.203585 60.118762 4 217.1 0 158.7200012207 68 1 delete
07:00:02 57.203603 60.118970 3.7999999523163 216.9 0 158.7200012207 68 1 delete
06:59:51 57.203715 60.118995 4 216.9 0 158.7200012207 68 1 delete
06:59:41 57.203827 60.119015 3.9000000953674 216.9 0 158.7200012207 68 1 delete
06:59:00 57.203925 60.118933 3.7999999523163 216.8 0 158.7200012207 68 1 delete
06:58:43 57.204035 60.118848 3.2000000476837 216.7 0 112.93000030518 68 1 delete
06:55:48 57.204118 60.118743 4.6999998092651 216.3 0 112.93000030518 68 1 delete
06:55:39 57.204267 60.118625 4.9000000953674 213.1 1.3393071889877 141.97999572754 68 1 delete
06:55:34 57.204348 60.118523 4.9000000953674 212 1.7171133756638 126.11000061035 68 1 delete
06:55:29 57.204412 60.118392 4.9000000953674 210.4 1.4633553028107 123.58000183105 68 1 delete
06:55:23 57.204487 60.118273 5 209.2 2.5916264057159 143.53999328613 68 1 delete
06:55:19 57.204587 60.118217 4.9000000953674 208.6 2.4835348129272 152.88999938965 68 1 delete
06:55:15 57.204680 60.118155 4.8000001907349 207.9 2.4917702674866 163.42999267578 68 1 delete
06:55:10 57.204788 60.118140 4.5999999046326 205.9 2.4016938209534 176.63000488281 68 1 delete
06:55:05 57.204893 60.118137 4.5999999046326 203.9 2.1561713218689 179.36999511719 68 1 delete
06:55:02 57.204995 60.118093 4.6999998092651 202.4 2.1505093574524 178.33999633789 68 1 delete
06:54:56 57.205108 60.117968 4.8000001907349 198.5 0 38.270000457764 68 1 delete
06:54:53 57.205193 60.117868 4.8000001907349 196.4 0 38.270000457764 68 1 delete
06:54:42 57.205228 60.117688 4.9000000953674 192.2 0 14.739999771118 68 1 delete
06:54:35 57.205238 60.117523 4.9000000953674 190.2 1.0577541589737 45.189998626709 68 1 delete
06:54:30 57.205257 60.117352 5 189.5 1.1673899888992 60.729999542236 68 1 delete